sensor_id;sensor_type;location;lat;lon;timestamp;temperature;humidity
64997;SHT31;51545;51.568;6.998;2023-02-01T00:00:11;5.88;92.02
64997;SHT31;51545;51.568;6.998;2023-02-01T00:02:37;5.86;91.88
64997;SHT31;51545;51.568;6.998;2023-02-01T00:05:06;5.81;91.78
64997;SHT31;51545;51.568;6.998;2023-02-01T00:07:34;5.78;91.26
64997;SHT31;51545;51.568;6.998;2023-02-01T00:09:59;5.85;90.30
64997;SHT31;51545;51.568;6.998;2023-02-01T00:12:25;5.78;90.56
64997;SHT31;51545;51.568;6.998;2023-02-01T00:14:50;5.82;89.98
64997;SHT31;51545;51.568;6.998;2023-02-01T00:17:15;5.78;89.56
64997;SHT31;51545;51.568;6.998;2023-02-01T00:19:41;5.77;89.22
64997;SHT31;51545;51.568;6.998;2023-02-01T00:22:06;5.79;88.74
64997;SHT31;51545;51.568;6.998;2023-02-01T00:24:32;5.77;88.82
64997;SHT31;51545;51.568;6.998;2023-02-01T00:26:57;5.69;89.07
64997;SHT31;51545;51.568;6.998;2023-02-01T00:29:22;5.74;88.09
64997;SHT31;51545;51.568;6.998;2023-02-01T00:31:49;5.72;87.73
64997;SHT31;51545;51.568;6.998;2023-02-01T00:34:18;5.71;87.15
64997;SHT31;51545;51.568;6.998;2023-02-01T00:36:44;5.78;86.57
64997;SHT31;51545;51.568;6.998;2023-02-01T00:39:10;5.75;86.42
64997;SHT31;51545;51.568;6.998;2023-02-01T00:41:36;5.82;85.33
64997;SHT31;51545;51.568;6.998;2023-02-01T00:44:02;5.86;84.94
64997;SHT31;51545;51.568;6.998;2023-02-01T00:46:28;5.83;84.72
64997;SHT31;51545;51.568;6.998;2023-02-01T00:48:54;5.86;84.12
64997;SHT31;51545;51.568;6.998;2023-02-01T00:51:21;5.86;84.42
64997;SHT31;51545;51.568;6.998;2023-02-01T00:53:48;5.96;83.52
64997;SHT31;51545;51.568;6.998;2023-02-01T00:56:13;5.88;84.34
64997;SHT31;51545;51.568;6.998;2023-02-01T00:58:39;5.90;84.08
64997;SHT31;51545;51.568;6.998;2023-02-01T01:01:06;5.86;84.51
64997;SHT31;51545;51.568;6.998;2023-02-01T01:03:33;5.89;84.16
64997;SHT31;51545;51.568;6.998;2023-02-01T01:06:03;5.92;84.34
64997;SHT31;51545;51.568;6.998;2023-02-01T01:08:37;5.88;84.68
64997;SHT31;51545;51.568;6.998;2023-02-01T01:11:07;5.90;84.70
64997;SHT31;51545;51.568;6.998;2023-02-01T01:13:36;5.92;84.79
64997;SHT31;51545;51.568;6.998;2023-02-01T01:16:02;6.00;84.48
64997;SHT31;51545;51.568;6.998;2023-02-01T01:18:29;6.03;84.11
64997;SHT31;51545;51.568;6.998;2023-02-01T01:20:55;6.05;84.33
64997;SHT31;51545;51.568;6.998;2023-02-01T01:23:21;6.11;83.87
64997;SHT31;51545;51.568;6.998;2023-02-01T01:25:47;6.21;83.59
64997;SHT31;51545;51.568;6.998;2023-02-01T01:28:12;6.13;84.17
64997;SHT31;51545;51.568;6.998;2023-02-01T01:30:38;6.13;84.28
64997;SHT31;51545;51.568;6.998;2023-02-01T01:33:03;6.13;84.24
64997;SHT31;51545;51.568;6.998;2023-02-01T01:35:29;6.10;84.57
64997;SHT31;51545;51.568;6.998;2023-02-01T01:37:56;6.17;84.41
64997;SHT31;51545;51.568;6.998;2023-02-01T01:40:22;6.07;84.85
64997;SHT31;51545;51.568;6.998;2023-02-01T01:42:47;6.09;84.90
64997;SHT31;51545;51.568;6.998;2023-02-01T01:45:24;6.09;84.90
64997;SHT31;51545;51.568;6.998;2023-02-01T01:47:54;6.07;85.04
64997;SHT31;51545;51.568;6.998;2023-02-01T01:50:24;6.05;85.11
64997;SHT31;51545;51.568;6.998;2023-02-01T01:52:54;6.05;85.19
64997;SHT31;51545;51.568;6.998;2023-02-01T01:55:22;6.03;85.52
64997;SHT31;51545;51.568;6.998;2023-02-01T01:58:12;6.05;85.46
64997;SHT31;51545;51.568;6.998;2023-02-01T02:00:37;6.10;85.37
64997;SHT31;51545;51.568;6.998;2023-02-01T02:03:06;6.07;85.44
64997;SHT31;51545;51.568;6.998;2023-02-01T02:05:37;6.05;85.63
64997;SHT31;51545;51.568;6.998;2023-02-01T02:08:03;6.03;85.52
64997;SHT31;51545;51.568;6.998;2023-02-01T02:10:28;6.00;85.64
64997;SHT31;51545;51.568;6.998;2023-02-01T02:13:14;6.00;85.78
64997;SHT31;51545;51.568;6.998;2023-02-01T02:15:51;5.99;85.66
64997;SHT31;51545;51.568;6.998;2023-02-01T02:21:42;5.92;85.65
64997;SHT31;51545;51.568;6.998;2023-02-01T02:36:19;5.95;85.12
64997;SHT31;51545;51.568;6.998;2023-02-01T02:41:40;5.90;84.75
64997;SHT31;51545;51.568;6.998;2023-02-01T02:44:35;5.95;84.63
64997;SHT31;51545;51.568;6.998;2023-02-01T02:50:08;5.88;84.68
64997;SHT31;51545;51.568;6.998;2023-02-01T02:53:16;5.83;84.59
64997;SHT31;51545;51.568;6.998;2023-02-01T02:56:05;5.77;84.67
64997;SHT31;51545;51.568;6.998;2023-02-01T02:58:52;5.75;84.49
64997;SHT31;51545;51.568;6.998;2023-02-01T03:01:37;5.77;84.42
64997;SHT31;51545;51.568;6.998;2023-02-01T03:04:23;5.69;84.66
64997;SHT31;51545;51.568;6.998;2023-02-01T03:06:51;5.68;85.00
64997;SHT31;51545;51.568;6.998;2023-02-01T03:09:23;5.74;84.48
64997;SHT31;51545;51.568;6.998;2023-02-01T03:11:57;5.65;84.72
64997;SHT31;51545;51.568;6.998;2023-02-01T03:14:47;5.65;84.80
64997;SHT31;51545;51.568;6.998;2023-02-01T03:17:18;5.64;84.70
64997;SHT31;51545;51.568;6.998;2023-02-01T03:19:51;5.69;84.15
64997;SHT31;51545;51.568;6.998;2023-02-01T03:22:22;5.69;84.09
64997;SHT31;51545;51.568;6.998;2023-02-01T03:24:55;5.65;84.20
64997;SHT31;51545;51.568;6.998;2023-02-01T03:27:27;5.62;84.26
64997;SHT31;51545;51.568;6.998;2023-02-01T03:32:31;5.61;84.06
64997;SHT31;51545;51.568;6.998;2023-02-01T03:35:17;5.65;83.92
64997;SHT31;51545;51.568;6.998;2023-02-01T03:37:47;5.65;83.94
64997;SHT31;51545;51.568;6.998;2023-02-01T03:40:13;5.69;83.85
64997;SHT31;51545;51.568;6.998;2023-02-01T03:42:45;5.65;84.19
64997;SHT31;51545;51.568;6.998;2023-02-01T03:45:15;5.69;83.96
64997;SHT31;51545;51.568;6.998;2023-02-01T03:47:48;5.62;84.34
64997;SHT31;51545;51.568;6.998;2023-02-01T03:50:17;5.68;84.39
64997;SHT31;51545;51.568;6.998;2023-02-01T03:55:27;5.64;84.67
64997;SHT31;51545;51.568;6.998;2023-02-01T03:58:08;5.57;84.99
64997;SHT31;51545;51.568;6.998;2023-02-01T04:00:37;5.58;85.20
64997;SHT31;51545;51.568;6.998;2023-02-01T04:03:04;5.58;85.46
64997;SHT31;51545;51.568;6.998;2023-02-01T04:05:31;5.69;85.22
64997;SHT31;51545;51.568;6.998;2023-02-01T04:07:56;5.69;85.16
64997;SHT31;51545;51.568;6.998;2023-02-01T04:10:22;5.83;84.98
64997;SHT31;51545;51.568;6.998;2023-02-01T04:12:47;5.75;85.32
64997;SHT31;51545;51.568;6.998;2023-02-01T04:15:13;5.75;85.49
64997;SHT31;51545;51.568;6.998;2023-02-01T04:17:38;5.72;85.67
64997;SHT31;51545;51.568;6.998;2023-02-01T04:20:04;5.74;85.63
64997;SHT31;51545;51.568;6.998;2023-02-01T04:22:30;5.72;86.04
64997;SHT31;51545;51.568;6.998;2023-02-01T04:24:55;5.75;85.85
64997;SHT31;51545;51.568;6.998;2023-02-01T04:27:21;5.78;85.87
64997;SHT31;51545;51.568;6.998;2023-02-01T04:29:47;5.68;86.35
64997;SHT31;51545;51.568;6.998;2023-02-01T04:32:14;5.72;86.05
64997;SHT31;51545;51.568;6.998;2023-02-01T04:34:41;5.72;86.27
64997;SHT31;51545;51.568;6.998;2023-02-01T04:37:06;5.77;86.06
64997;SHT31;51545;51.568;6.998;2023-02-01T04:39:32;5.79;86.03
64997;SHT31;51545;51.568;6.998;2023-02-01T04:41:58;5.75;86.24
64997;SHT31;51545;51.568;6.998;2023-02-01T04:44:23;5.72;86.51
64997;SHT31;51545;51.568;6.998;2023-02-01T04:46:49;5.72;86.51
64997;SHT31;51545;51.568;6.998;2023-02-01T04:49:15;5.71;86.71
64997;SHT31;51545;51.568;6.998;2023-02-01T04:51:41;5.71;86.82
64997;SHT31;51545;51.568;6.998;2023-02-01T04:54:07;5.71;86.65
64997;SHT31;51545;51.568;6.998;2023-02-01T04:56:33;5.69;86.80
64997;SHT31;51545;51.568;6.998;2023-02-01T04:59:00;5.75;86.61
64997;SHT31;51545;51.568;6.998;2023-02-01T05:01:27;5.72;86.70
64997;SHT31;51545;51.568;6.998;2023-02-01T05:03:53;5.67;86.94
64997;SHT31;51545;51.568;6.998;2023-02-01T05:06:18;5.61;87.04
64997;SHT31;51545;51.568;6.998;2023-02-01T05:08:44;5.55;87.45
64997;SHT31;51545;51.568;6.998;2023-02-01T05:11:09;5.52;87.58
64997;SHT31;51545;51.568;6.998;2023-02-01T05:13:54;5.58;87.68
64997;SHT31;51545;51.568;6.998;2023-02-01T05:16:20;5.58;87.57
64997;SHT31;51545;51.568;6.998;2023-02-01T05:18:45;5.60;87.55
64997;SHT31;51545;51.568;6.998;2023-02-01T05:21:11;5.62;87.55
64997;SHT31;51545;51.568;6.998;2023-02-01T05:23:36;5.64;87.75
64997;SHT31;51545;51.568;6.998;2023-02-01T05:26:22;5.62;87.78
64997;SHT31;51545;51.568;6.998;2023-02-01T05:28:48;5.58;87.71
64997;SHT31;51545;51.568;6.998;2023-02-01T05:31:13;5.51;87.80
64997;SHT31;51545;51.568;6.998;2023-02-01T05:33:38;5.52;87.85
64997;SHT31;51545;51.568;6.998;2023-02-01T05:36:04;5.47;87.99
64997;SHT31;51545;51.568;6.998;2023-02-01T05:38:30;5.57;87.74
64997;SHT31;51545;51.568;6.998;2023-02-01T05:40:55;5.47;87.91
64997;SHT31;51545;51.568;6.998;2023-02-01T05:43:21;5.43;88.08
64997;SHT31;51545;51.568;6.998;2023-02-01T05:45:47;5.41;88.18
64997;SHT31;51545;51.568;6.998;2023-02-01T05:48:13;5.30;88.53
64997;SHT31;51545;51.568;6.998;2023-02-01T05:50:38;5.33;88.61
64997;SHT31;51545;51.568;6.998;2023-02-01T05:53:04;5.31;88.77
64997;SHT31;51545;51.568;6.998;2023-02-01T05:55:29;5.40;88.54
64997;SHT31;51545;51.568;6.998;2023-02-01T05:57:55;5.33;88.74
64997;SHT31;51545;51.568;6.998;2023-02-01T06:00:20;5.37;88.61
64997;SHT31;51545;51.568;6.998;2023-02-01T06:02:46;5.41;88.72
64997;SHT31;51545;51.568;6.998;2023-02-01T06:05:11;5.44;88.54
64997;SHT31;51545;51.568;6.998;2023-02-01T06:07:37;5.43;88.64
64997;SHT31;51545;51.568;6.998;2023-02-01T06:10:03;5.45;88.43
64997;SHT31;51545;51.568;6.998;2023-02-01T06:12:29;5.48;88.53
64997;SHT31;51545;51.568;6.998;2023-02-01T06:14:55;5.47;88.45
64997;SHT31;51545;51.568;6.998;2023-02-01T06:17:20;5.50;88.51
64997;SHT31;51545;51.568;6.998;2023-02-01T06:19:45;5.48;88.52
64997;SHT31;51545;51.568;6.998;2023-02-01T06:22:13;5.47;88.83
64997;SHT31;51545;51.568;6.998;2023-02-01T06:24:39;5.45;88.68
64997;SHT31;51545;51.568;6.998;2023-02-01T06:27:07;5.55;88.50
64997;SHT31;51545;51.568;6.998;2023-02-01T06:29:34;5.50;88.63
64997;SHT31;51545;51.568;6.998;2023-02-01T06:32:00;5.52;88.60
64997;SHT31;51545;51.568;6.998;2023-02-01T06:34:25;5.55;88.42
64997;SHT31;51545;51.568;6.998;2023-02-01T06:36:51;5.55;88.27
64997;SHT31;51545;51.568;6.998;2023-02-01T06:39:16;5.58;88.19
64997;SHT31;51545;51.568;6.998;2023-02-01T06:41:48;5.55;88.19
64997;SHT31;51545;51.568;6.998;2023-02-01T06:44:14;5.57;88.37
64997;SHT31;51545;51.568;6.998;2023-02-01T06:46:40;5.57;88.35
64997;SHT31;51545;51.568;6.998;2023-02-01T06:49:06;5.55;88.41
64997;SHT31;51545;51.568;6.998;2023-02-01T06:51:31;5.51;88.48
64997;SHT31;51545;51.568;6.998;2023-02-01T06:53:56;5.52;88.36
64997;SHT31;51545;51.568;6.998;2023-02-01T06:56:22;5.57;88.48
64997;SHT31;51545;51.568;6.998;2023-02-01T06:58:48;5.58;88.39
64997;SHT31;51545;51.568;6.998;2023-02-01T07:01:14;5.57;88.28
64997;SHT31;51545;51.568;6.998;2023-02-01T07:03:41;5.60;88.38
64997;SHT31;51545;51.568;6.998;2023-02-01T07:06:07;5.57;88.46
64997;SHT31;51545;51.568;6.998;2023-02-01T07:08:34;5.61;88.57
64997;SHT31;51545;51.568;6.998;2023-02-01T07:11:05;5.62;88.33
64997;SHT31;51545;51.568;6.998;2023-02-01T07:13:32;5.61;88.18
64997;SHT31;51545;51.568;6.998;2023-02-01T07:15:59;5.61;88.33
64997;SHT31;51545;51.568;6.998;2023-02-01T07:18:26;5.62;88.37
64997;SHT31;51545;51.568;6.998;2023-02-01T07:20:52;5.64;88.51
64997;SHT31;51545;51.568;6.998;2023-02-01T07:23:18;5.64;88.54
64997;SHT31;51545;51.568;6.998;2023-02-01T07:25:45;5.65;88.43
64997;SHT31;51545;51.568;6.998;2023-02-01T07:28:11;5.67;88.39
64997;SHT31;51545;51.568;6.998;2023-02-01T07:30:36;5.67;88.42
64997;SHT31;51545;51.568;6.998;2023-02-01T07:33:02;5.67;88.48
64997;SHT31;51545;51.568;6.998;2023-02-01T07:35:27;5.67;88.62
64997;SHT31;51545;51.568;6.998;2023-02-01T07:37:53;5.67;88.57
64997;SHT31;51545;51.568;6.998;2023-02-01T07:40:18;5.67;88.50
64997;SHT31;51545;51.568;6.998;2023-02-01T07:42:49;5.68;88.52
64997;SHT31;51545;51.568;6.998;2023-02-01T07:45:15;5.65;88.66
64997;SHT31;51545;51.568;6.998;2023-02-01T07:47:41;5.65;88.58
64997;SHT31;51545;51.568;6.998;2023-02-01T07:50:06;5.64;88.71
64997;SHT31;51545;51.568;6.998;2023-02-01T07:52:32;5.62;88.83
64997;SHT31;51545;51.568;6.998;2023-02-01T07:54:58;5.67;88.85
64997;SHT31;51545;51.568;6.998;2023-02-01T07:57:23;5.64;88.85
64997;SHT31;51545;51.568;6.998;2023-02-01T07:59:49;5.64;88.90
64997;SHT31;51545;51.568;6.998;2023-02-01T08:02:32;5.68;88.85
64997;SHT31;51545;51.568;6.998;2023-02-01T08:04:58;5.68;88.83
64997;SHT31;51545;51.568;6.998;2023-02-01T08:07:23;5.69;89.05
64997;SHT31;51545;51.568;6.998;2023-02-01T08:09:49;5.71;89.00
64997;SHT31;51545;51.568;6.998;2023-02-01T08:12:14;5.69;88.90
64997;SHT31;51545;51.568;6.998;2023-02-01T08:14:40;5.69;88.98
64997;SHT31;51545;51.568;6.998;2023-02-01T08:17:06;5.71;89.10
64997;SHT31;51545;51.568;6.998;2023-02-01T08:19:31;5.75;89.03
64997;SHT31;51545;51.568;6.998;2023-02-01T08:21:57;5.69;89.21
64997;SHT31;51545;51.568;6.998;2023-02-01T08:24:24;5.75;89.22
64997;SHT31;51545;51.568;6.998;2023-02-01T08:26:50;5.74;89.23
64997;SHT31;51545;51.568;6.998;2023-02-01T08:29:15;5.78;89.22
64997;SHT31;51545;51.568;6.998;2023-02-01T08:31:41;5.72;89.35
64997;SHT31;51545;51.568;6.998;2023-02-01T08:34:08;5.78;89.24
64997;SHT31;51545;51.568;6.998;2023-02-01T08:36:33;5.79;89.13
64997;SHT31;51545;51.568;6.998;2023-02-01T08:38:59;5.82;89.18
64997;SHT31;51545;51.568;6.998;2023-02-01T08:41:26;5.86;88.92
64997;SHT31;51545;51.568;6.998;2023-02-01T08:43:54;5.86;89.04
64997;SHT31;51545;51.568;6.998;2023-02-01T08:46:20;5.90;88.92
64997;SHT31;51545;51.568;6.998;2023-02-01T08:48:47;5.93;88.84
64997;SHT31;51545;51.568;6.998;2023-02-01T08:51:13;5.99;88.71
64997;SHT31;51545;51.568;6.998;2023-02-01T08:53:40;5.99;88.71
64997;SHT31;51545;51.568;6.998;2023-02-01T08:56:06;5.95;88.73
64997;SHT31;51545;51.568;6.998;2023-02-01T08:58:33;5.93;88.61
64997;SHT31;51545;51.568;6.998;2023-02-01T09:01:03;5.98;89.00
64997;SHT31;51545;51.568;6.998;2023-02-01T09:03:29;5.92;88.90
64997;SHT31;51545;51.568;6.998;2023-02-01T09:06:02;6.00;89.09
64997;SHT31;51545;51.568;6.998;2023-02-01T09:08:29;5.95;88.70
64997;SHT31;51545;51.568;6.998;2023-02-01T09:10:58;6.07;88.49
64997;SHT31;51545;51.568;6.998;2023-02-01T09:13:24;6.07;88.24
64997;SHT31;51545;51.568;6.998;2023-02-01T09:15:50;6.14;87.93
64997;SHT31;51545;51.568;6.998;2023-02-01T09:18:16;6.18;88.17
64997;SHT31;51545;51.568;6.998;2023-02-01T09:20:41;6.18;88.03
64997;SHT31;51545;51.568;6.998;2023-02-01T09:23:07;6.13;88.27
64997;SHT31;51545;51.568;6.998;2023-02-01T09:25:32;6.05;88.28
64997;SHT31;51545;51.568;6.998;2023-02-01T09:27:57;6.10;88.38
64997;SHT31;51545;51.568;6.998;2023-02-01T09:30:23;6.13;88.27
64997;SHT31;51545;51.568;6.998;2023-02-01T09:32:48;6.17;88.36
64997;SHT31;51545;51.568;6.998;2023-02-01T09:35:14;6.11;88.14
64997;SHT31;51545;51.568;6.998;2023-02-01T09:37:39;6.10;88.04
64997;SHT31;51545;51.568;6.998;2023-02-01T09:40:05;6.10;88.06
64997;SHT31;51545;51.568;6.998;2023-02-01T09:48:11;6.20;87.71
64997;SHT31;51545;51.568;6.998;2023-02-01T09:50:48;6.27;87.67
64997;SHT31;51545;51.568;6.998;2023-02-01T09:53:21;6.26;87.58
64997;SHT31;51545;51.568;6.998;2023-02-01T09:56:12;6.28;87.26
64997;SHT31;51545;51.568;6.998;2023-02-01T10:01:19;6.40;86.70
64997;SHT31;51545;51.568;6.998;2023-02-01T10:03:54;6.48;86.75
64997;SHT31;51545;51.568;6.998;2023-02-01T10:17:43;6.92;85.45
64997;SHT31;51545;51.568;6.998;2023-02-01T10:25:56;6.73;85.55
64997;SHT31;51545;51.568;6.998;2023-02-01T10:28:24;6.68;85.97
64997;SHT31;51545;51.568;6.998;2023-02-01T10:30:51;6.71;85.73
64997;SHT31;51545;51.568;6.998;2023-02-01T10:33:26;6.65;85.83
64997;SHT31;51545;51.568;6.998;2023-02-01T10:36:00;6.62;85.98
64997;SHT31;51545;51.568;6.998;2023-02-01T10:38:42;6.65;85.94
64997;SHT31;51545;51.568;6.998;2023-02-01T10:41:12;6.62;85.95
64997;SHT31;51545;51.568;6.998;2023-02-01T10:43:41;6.62;85.88
64997;SHT31;51545;51.568;6.998;2023-02-01T10:46:08;6.72;86.24
64997;SHT31;51545;51.568;6.998;2023-02-01T10:48:34;6.86;85.68
64997;SHT31;51545;51.568;6.998;2023-02-01T10:51:01;6.86;85.34
64997;SHT31;51545;51.568;6.998;2023-02-01T10:53:32;6.89;85.91
64997;SHT31;51545;51.568;6.998;2023-02-01T10:56:07;6.86;85.73
64997;SHT31;51545;51.568;6.998;2023-02-01T10:58:42;6.78;85.62
64997;SHT31;51545;51.568;6.998;2023-02-01T11:01:16;6.80;85.72
64997;SHT31;51545;51.568;6.998;2023-02-01T11:08:54;7.03;85.25
64997;SHT31;51545;51.568;6.998;2023-02-01T11:11:27;7.06;85.34
64997;SHT31;51545;51.568;6.998;2023-02-01T11:13:55;6.96;85.11
64997;SHT31;51545;51.568;6.998;2023-02-01T11:16:35;7.03;84.87
64997;SHT31;51545;51.568;6.998;2023-02-01T11:19:02;7.10;85.28
64997;SHT31;51545;51.568;6.998;2023-02-01T11:21:28;7.03;85.07
64997;SHT31;51545;51.568;6.998;2023-02-01T11:23:55;7.11;85.11
64997;SHT31;51545;51.568;6.998;2023-02-01T11:26:27;7.10;84.84
64997;SHT31;51545;51.568;6.998;2023-02-01T11:28:56;7.13;85.11
64997;SHT31;51545;51.568;6.998;2023-02-01T11:31:35;7.07;84.86
64997;SHT31;51545;51.568;6.998;2023-02-01T11:34:17;7.07;84.78
64997;SHT31;51545;51.568;6.998;2023-02-01T11:36:49;7.09;84.99
64997;SHT31;51545;51.568;6.998;2023-02-01T11:39:25;6.99;84.73
64997;SHT31;51545;51.568;6.998;2023-02-01T11:44:40;6.96;86.10
64997;SHT31;51545;51.568;6.998;2023-02-01T11:50:00;6.51;90.14
64997;SHT31;51545;51.568;6.998;2023-02-01T12:03:26;6.18;93.63
64997;SHT31;51545;51.568;6.998;2023-02-01T12:06:08;6.18;93.71
64997;SHT31;51545;51.568;6.998;2023-02-01T12:09:09;6.18;93.91
64997;SHT31;51545;51.568;6.998;2023-02-01T12:11:45;6.18;93.65
64997;SHT31;51545;51.568;6.998;2023-02-01T12:14:24;6.24;93.81
64997;SHT31;51545;51.568;6.998;2023-02-01T12:19:34;6.27;93.09
64997;SHT31;51545;51.568;6.998;2023-02-01T12:22:18;6.30;92.72
64997;SHT31;51545;51.568;6.998;2023-02-01T12:27:54;6.40;91.89
64997;SHT31;51545;51.568;6.998;2023-02-01T12:33:27;6.48;91.10
64997;SHT31;51545;51.568;6.998;2023-02-01T12:46:59;6.79;88.90
64997;SHT31;51545;51.568;6.998;2023-02-01T12:49:48;6.83;88.71
64997;SHT31;51545;51.568;6.998;2023-02-01T12:52:37;6.86;88.22
64997;SHT31;51545;51.568;6.998;2023-02-01T13:01:11;6.83;88.57
64997;SHT31;51545;51.568;6.998;2023-02-01T13:11:33;7.06;86.48
64997;SHT31;51545;51.568;6.998;2023-02-01T13:14:07;7.06;86.62
64997;SHT31;51545;51.568;6.998;2023-02-01T13:16:50;7.06;86.69
64997;SHT31;51545;51.568;6.998;2023-02-01T13:19:24;7.11;86.34
64997;SHT31;51545;51.568;6.998;2023-02-01T13:22:09;7.14;86.80
64997;SHT31;51545;51.568;6.998;2023-02-01T13:27:13;7.16;86.58
64997;SHT31;51545;51.568;6.998;2023-02-01T13:30:03;7.18;86.29
64997;SHT31;51545;51.568;6.998;2023-02-01T13:40:46;7.37;85.02
64997;SHT31;51545;51.568;6.998;2023-02-01T13:43:15;7.41;84.93
64997;SHT31;51545;51.568;6.998;2023-02-01T13:45:48;7.45;84.54
64997;SHT31;51545;51.568;6.998;2023-02-01T13:48:29;7.41;85.28
64997;SHT31;51545;51.568;6.998;2023-02-01T13:51:03;7.41;85.11
64997;SHT31;51545;51.568;6.998;2023-02-01T13:53:30;7.42;85.05
64997;SHT31;51545;51.568;6.998;2023-02-01T13:56:00;7.48;84.87
64997;SHT31;51545;51.568;6.998;2023-02-01T14:03:48;7.49;84.65
64997;SHT31;51545;51.568;6.998;2023-02-01T14:11:37;7.54;84.36
64997;SHT31;51545;51.568;6.998;2023-02-01T14:21:52;7.61;83.95
64997;SHT31;51545;51.568;6.998;2023-02-01T14:24:27;7.59;84.40
64997;SHT31;51545;51.568;6.998;2023-02-01T14:26:56;7.61;84.41
64997;SHT31;51545;51.568;6.998;2023-02-01T14:29:50;7.63;84.24
64997;SHT31;51545;51.568;6.998;2023-02-01T14:32:23;7.67;83.56
64997;SHT31;51545;51.568;6.998;2023-02-01T14:34:53;7.67;83.90
64997;SHT31;51545;51.568;6.998;2023-02-01T14:39:55;7.70;84.15
64997;SHT31;51545;51.568;6.998;2023-02-01T14:47:55;7.72;84.10
64997;SHT31;51545;51.568;6.998;2023-02-01T14:53:01;7.78;83.74
64997;SHT31;51545;51.568;6.998;2023-02-01T15:00:55;7.54;86.76
64997;SHT31;51545;51.568;6.998;2023-02-01T15:06:13;7.56;86.48
64997;SHT31;51545;51.568;6.998;2023-02-01T15:08:47;7.63;85.07
64997;SHT31;51545;51.568;6.998;2023-02-01T15:11:14;7.62;85.03
64997;SHT31;51545;51.568;6.998;2023-02-01T15:13:47;7.69;84.80
64997;SHT31;51545;51.568;6.998;2023-02-01T15:16:15;7.67;84.99
64997;SHT31;51545;51.568;6.998;2023-02-01T15:18:42;7.70;85.07
64997;SHT31;51545;51.568;6.998;2023-02-01T15:21:18;7.66;84.96
64997;SHT31;51545;51.568;6.998;2023-02-01T15:23:45;7.75;83.86
64997;SHT31;51545;51.568;6.998;2023-02-01T15:26:34;7.76;83.93
64997;SHT31;51545;51.568;6.998;2023-02-01T15:28:59;7.75;83.68
64997;SHT31;51545;51.568;6.998;2023-02-01T15:31:35;7.72;83.93
64997;SHT31;51545;51.568;6.998;2023-02-01T15:34:03;7.73;83.86
64997;SHT31;51545;51.568;6.998;2023-02-01T15:36:29;7.79;83.44
64997;SHT31;51545;51.568;6.998;2023-02-01T15:39:13;7.76;84.07
64997;SHT31;51545;51.568;6.998;2023-02-01T15:41:48;7.78;83.75
64997;SHT31;51545;51.568;6.998;2023-02-01T15:46:46;7.76;83.65
64997;SHT31;51545;51.568;6.998;2023-02-01T15:49:27;7.78;83.95
64997;SHT31;51545;51.568;6.998;2023-02-01T15:51:56;7.80;83.57
64997;SHT31;51545;51.568;6.998;2023-02-01T15:54:27;7.76;83.92
64997;SHT31;51545;51.568;6.998;2023-02-01T15:56:56;7.75;84.09
64997;SHT31;51545;51.568;6.998;2023-02-01T15:59:29;7.76;84.10
64997;SHT31;51545;51.568;6.998;2023-02-01T16:01:59;7.75;83.85
64997;SHT31;51545;51.568;6.998;2023-02-01T16:04:26;7.75;84.09
64997;SHT31;51545;51.568;6.998;2023-02-01T16:06:57;7.72;84.02
64997;SHT31;51545;51.568;6.998;2023-02-01T16:09:36;7.75;84.18
64997;SHT31;51545;51.568;6.998;2023-02-01T16:12:17;7.72;83.99
64997;SHT31;51545;51.568;6.998;2023-02-01T16:14:59;7.78;83.97
64997;SHT31;51545;51.568;6.998;2023-02-01T16:17:24;7.78;83.87
64997;SHT31;51545;51.568;6.998;2023-02-01T16:19:49;7.78;83.84
64997;SHT31;51545;51.568;6.998;2023-02-01T16:22:15;7.73;84.23
64997;SHT31;51545;51.568;6.998;2023-02-01T16:24:40;7.76;84.14
64997;SHT31;51545;51.568;6.998;2023-02-01T16:27:06;7.65;85.93
64997;SHT31;51545;51.568;6.998;2023-02-01T16:29:32;7.61;86.15
64997;SHT31;51545;51.568;6.998;2023-02-01T16:31:58;7.52;86.10
64997;SHT31;51545;51.568;6.998;2023-02-01T16:34:24;7.54;86.29
64997;SHT31;51545;51.568;6.998;2023-02-01T16:36:50;7.46;87.12
64997;SHT31;51545;51.568;6.998;2023-02-01T16:39:17;7.39;87.82
64997;SHT31;51545;51.568;6.998;2023-02-01T16:41:43;7.32;88.66
64997;SHT31;51545;51.568;6.998;2023-02-01T16:44:10;7.28;88.96
64997;SHT31;51545;51.568;6.998;2023-02-01T16:46:40;7.26;88.99
64997;SHT31;51545;51.568;6.998;2023-02-01T16:49:21;7.32;88.77
64997;SHT31;51545;51.568;6.998;2023-02-01T16:51:49;7.32;88.72
64997;SHT31;51545;51.568;6.998;2023-02-01T16:54:18;7.26;89.94
64997;SHT31;51545;51.568;6.998;2023-02-01T16:56:44;7.14;91.65
64997;SHT31;51545;51.568;6.998;2023-02-01T16:59:10;7.14;92.14
64997;SHT31;51545;51.568;6.998;2023-02-01T17:01:36;6.56;92.19
64997;SHT31;51545;51.568;6.998;2023-02-01T17:04:02;5.96;93.44
64997;SHT31;51545;51.568;6.998;2023-02-01T17:06:28;5.78;94.78
64997;SHT31;51545;51.568;6.998;2023-02-01T17:08:57;5.71;95.13
64997;SHT31;51545;51.568;6.998;2023-02-01T17:11:24;5.60;95.70
64997;SHT31;51545;51.568;6.998;2023-02-01T17:13:50;5.58;95.90
64997;SHT31;51545;51.568;6.998;2023-02-01T17:16:20;5.60;96.13
64997;SHT31;51545;51.568;6.998;2023-02-01T17:18:54;5.61;96.49
64997;SHT31;51545;51.568;6.998;2023-02-01T17:21:25;5.61;96.69
64997;SHT31;51545;51.568;6.998;2023-02-01T17:23:53;5.65;96.77
64997;SHT31;51545;51.568;6.998;2023-02-01T17:26:19;5.78;96.76
64997;SHT31;51545;51.568;6.998;2023-02-01T17:28:45;5.83;96.38
64997;SHT31;51545;51.568;6.998;2023-02-01T17:31:14;5.86;95.82
64997;SHT31;51545;51.568;6.998;2023-02-01T17:33:40;5.95;95.43
64997;SHT31;51545;51.568;6.998;2023-02-01T17:36:08;5.98;95.69
64997;SHT31;51545;51.568;6.998;2023-02-01T17:38:37;6.09;95.69
64997;SHT31;51545;51.568;6.998;2023-02-01T17:41:02;6.24;95.17
64997;SHT31;51545;51.568;6.998;2023-02-01T17:43:28;6.34;95.02
64997;SHT31;51545;51.568;6.998;2023-02-01T17:45:55;6.40;94.83
64997;SHT31;51545;51.568;6.998;2023-02-01T17:48:21;6.45;94.57
64997;SHT31;51545;51.568;6.998;2023-02-01T17:50:48;6.48;94.24
64997;SHT31;51545;51.568;6.998;2023-02-01T17:53:23;6.51;94.60
64997;SHT31;51545;51.568;6.998;2023-02-01T17:55:50;6.62;93.43
64997;SHT31;51545;51.568;6.998;2023-02-01T17:58:16;6.79;92.56
64997;SHT31;51545;51.568;6.998;2023-02-01T18:00:42;6.88;92.28
64997;SHT31;51545;51.568;6.998;2023-02-01T18:03:18;6.86;93.00
64997;SHT31;51545;51.568;6.998;2023-02-01T18:05:49;6.83;93.34
64997;SHT31;51545;51.568;6.998;2023-02-01T18:08:17;6.86;93.15
64997;SHT31;51545;51.568;6.998;2023-02-01T18:10:51;6.82;93.56
64997;SHT31;51545;51.568;6.998;2023-02-01T18:13:19;6.83;93.04
64997;SHT31;51545;51.568;6.998;2023-02-01T18:15:45;6.80;93.86
64997;SHT31;51545;51.568;6.998;2023-02-01T18:18:10;6.82;93.64
64997;SHT31;51545;51.568;6.998;2023-02-01T18:20:36;6.82;94.31
64997;SHT31;51545;51.568;6.998;2023-02-01T18:23:17;6.73;94.44
64997;SHT31;51545;51.568;6.998;2023-02-01T18:25:45;5.40;91.44
64997;SHT31;51545;51.568;6.998;2023-02-01T18:28:12;4.46;92.08
64997;SHT31;51545;51.568;6.998;2023-02-01T18:30:39;4.02;94.61
64997;SHT31;51545;51.568;6.998;2023-02-01T18:33:10;3.81;95.75
64997;SHT31;51545;51.568;6.998;2023-02-01T18:35:36;3.91;96.24